Flight Track Log - Related Links

Times and Time Zones

All times are in EST time to prevent confusion due to time zone crossing. See the FLG3733 flight status page for this flight to view local times or setup timezone preferences in your user account.

Time Position Orientation Groundspeed Altitude Reporting Facility
EST Latitude Longitude Course Direction KTS MPH feet Rate Location/Type
Sat 12:24:04 PM 35.8686 -78.8114 228° Southwest 169 194 1,300  Level Washington Center
Sat 12:24:22 PM 35.8578 -78.8264 228° Southwest 170 196 2,000 2,127 Climbing Washington Center
Sat 12:25:23 PM 35.8397 -78.8794 247° West 209 241 4,100 2,262 Climbing Washington Center
Sat 12:27:25 PM 35.9275 -79.0189 308° West 288 331 8,900 2,295 Climbing Washington Center
Sat 12:28:26 PM 35.9689 -79.1081 300° West 283 326 11,100 1,736 Climbing Washington Center
Sat 12:29:26 PM 36.0078 -79.1972 298° West 303 349 12,400 1,636 Climbing Washington Center
Sat 12:30:27 PM 36.0564 -79.3150 297° West 339 390 14,400 1,966 Climbing Washington Center
Sat 12:31:25 PM 36.1361 -79.3728 330° Northwest 365 420 16,300 1,780 Climbing Washington Center
Sat 12:32:25 PM 36.2261 -79.4233 336° Northwest 374 430 17,900 1,850 Climbing Washington Center
Sat 12:33:25 PM 36.3217 -79.5053 325° Northwest 385 443 20,000 1,967 Climbing Washington Center
Sat 12:34:27 PM 36.4167 -79.5928 323° Northwest 385 443 21,900 1,475 Climbing Washington Center
Sat 12:35:27 PM 36.5000 -79.6642 325° Northwest 395 455 23,000 559 Climbing Washington Center
Sat 12:36:25 PM 36.5847 -79.7461 322° Northwest 395 455 23,000  Level Washington Center
Sat 12:37:26 PM 36.6414 -79.8528 304° West 383 441 23,000 689 Level Washington Center
Sat 12:38:27 PM 36.7000 -79.9622 304° West 376 433 24,400 1,469 Climbing Washington Center
Sat 12:39:53 PM 36.7886 -80.1325 303° West 363 418 26,600 1,356 Climbing Atlanta Center
Sat 12:40:53 PM 36.8419 -80.2364 303° West 375 432 27,700 1,050 Climbing Atlanta Center
Sat 12:41:53 PM 36.8994 -80.3503 302° West 380 437 28,700 1,100 Climbing Atlanta Center
Sat 12:42:53 PM 36.9594 -80.4669 303° West 391 450 29,900 1,100 Climbing Atlanta Center
Sat 12:43:53 PM 37.0189 -80.5814 303° West 391 450 30,900 1,104 Climbing Atlanta Center
Sat 12:46:14 PM 37.2050 -80.8056 316° Northwest 417 480 33,600 921 Climbing Indianapolis Center
Sat 12:47:15 PM 37.3153 -80.8975 326° Northwest 409 471 34,000 197 Climbing Indianapolis Center
Sat 12:48:16 PM 37.4094 -80.9753 327° Northwest 413 475 34,000  Level Indianapolis Center
Sat 12:49:17 PM 37.5036 -81.0536 327° Northwest 415 478 34,000  Level Indianapolis Center
Sat 12:50:18 PM 37.5997 -81.1328 327° Northwest 419 482 34,000  Level Indianapolis Center
Sat 12:51:19 PM 37.6939 -81.2122 326° Northwest 417 480 34,000  Level Indianapolis Center
Sat 12:52:20 PM 37.8078 -81.3075 327° Northwest 419 482 34,000  Level Indianapolis Center
Sat 12:53:21 PM 37.8922 -81.3778 327° Northwest 414 476 34,000  Level Indianapolis Center
Sat 12:54:22 PM 37.9881 -81.4589 326° Northwest 412 474 34,000  Level Indianapolis Center
Sat 12:55:24 PM 38.0828 -81.5400 326° Northwest 409 471 34,000  Level Indianapolis Center
Sat 12:56:25 PM 38.1772 -81.6194 327° Northwest 407 468 34,000  Level Indianapolis Center
Sat 12:57:26 PM 38.2717 -81.6997 326° Northwest 404 465 34,000  Level Indianapolis Center
Sat 12:58:27 PM 38.3636 -81.7869 323° Northwest 409 471 34,000  Level Indianapolis Center
Sat 12:59:28 PM 38.4450 -81.8869 316° Northwest 404 465 34,000  Level Indianapolis Center
Sat 01:00:29 PM 38.5422 -82.0053 316° Northwest 400 460 34,000  Level Indianapolis Center
Sat 01:01:31 PM 38.6225 -82.1056 316° Northwest 400 460 34,000  Level Indianapolis Center
Sat 01:02:32 PM 38.7022 -82.2047 316° Northwest 399 459 34,000  Level Indianapolis Center
Sat 01:03:33 PM 38.7811 -82.3031 316° Northwest 393 452 34,000  Level Indianapolis Center
Sat 01:04:34 PM 38.8589 -82.3994 316° Northwest 388 447 34,000  Level Indianapolis Center
Sat 01:05:35 PM 38.9350 -82.4950 316° Northwest 383 441 34,000  Level Indianapolis Center
Sat 01:06:37 PM 39.0094 -82.5911 315° West 378 435 34,000  Level Indianapolis Center
Sat 01:07:38 PM 39.0842 -82.6847 316° Northwest 374 430 34,000  Level Indianapolis Center
Sat 01:08:39 PM 39.1592 -82.7794 316° Northwest 376 433 34,000  Level Indianapolis Center
Sat 01:09:40 PM 39.2292 -82.8686 315° West 378 435 34,000  Level Indianapolis Center
Sat 01:10:41 PM 39.3181 -82.9817 315° West 375 432 34,000  Level Indianapolis Center
Sat 01:11:43 PM 39.3922 -83.0756 316° Northwest 374 430 34,000  Level Indianapolis Center
Sat 01:12:44 PM 39.4661 -83.1706 315° West 373 429 34,000  Level Indianapolis Center
Sat 01:13:45 PM 39.5397 -83.2661 315° West 375 432 34,000  Level Indianapolis Center
Sat 01:14:46 PM 39.6133 -83.3611 315° West 373 429 34,000  Level Indianapolis Center
Sat 01:15:48 PM 39.6875 -83.4572 315° West 373 429 34,000  Level Indianapolis Center
Sat 01:16:49 PM 39.7614 -83.5561 314° West 373 429 34,000  Level Indianapolis Center
Sat 01:17:50 PM 39.8378 -83.6542 315° West 374 430 34,000  Level Indianapolis Center
Sat 01:18:51 PM 39.9122 -83.7517 315° West 375 432 34,000  Level Indianapolis Center
Sat 01:19:53 PM 39.9858 -83.8481 315° West 374 430 34,000  Level Indianapolis Center
Sat 01:20:54 PM 40.0597 -83.9444 315° West 375 432 34,000  Level Indianapolis Center
Sat 01:21:55 PM 40.1325 -84.0400 315° West 375 432 34,000  Level Indianapolis Center
Sat 01:22:56 PM 40.2064 -84.1375 315° West 376 433 34,000  Level Indianapolis Center
Sat 01:23:58 PM 40.2775 -84.2336 314° West 372 428 34,000  Level Indianapolis Center
Sat 01:24:59 PM 40.3633 -84.3489 314° West 369 425 34,000  Level Indianapolis Center
Sat 01:26:00 PM 40.4350 -84.4442 315° West 366 421 34,000 492 Level Indianapolis Center
Sat 01:27:01 PM 40.5069 -84.5406 314° West 369 425 35,000 976 Climbing Indianapolis Center
Sat 01:28:03 PM 40.5772 -84.6361 314° West 366 421 36,000 517 Climbing Indianapolis Center
Sat 01:28:57 PM 40.6367 -84.7158 315° West 364 419 36,000  Level Chicago Center
Sat 01:29:59 PM 40.7097 -84.8161 314° West 359 413 36,000  Level Chicago Center
Sat 01:31:00 PM 40.7769 -84.9089 314° West 353 406 36,000  Level Chicago Center
Sat 01:32:01 PM 40.8431 -85.0000 314° West 347 399 36,000  Level Chicago Center
Sat 01:33:02 PM 40.9078 -85.0872 314° West 337 388 36,000  Level Chicago Center
Sat 01:34:03 PM 40.9725 -85.1756 314° West 335 386 36,000  Level Chicago Center
Sat 01:35:05 PM 41.0353 -85.2653 313° West 334 384 36,000  Level Chicago Center
Sat 01:36:06 PM 41.1119 -85.3719 314° West 332 382 36,000  Level Chicago Center
Sat 01:37:07 PM 41.1761 -85.4631 313° West 335 386 36,000  Level Chicago Center
Sat 01:38:09 PM 41.2422 -85.5569 313° West 343 395 36,000  Level Chicago Center
Sat 01:39:10 PM 41.3097 -85.6522 313° West 351 404 36,000  Level Chicago Center
Sat 01:40:11 PM 41.3786 -85.7517 313° West 361 415 36,000  Level Chicago Center
Sat 01:41:12 PM 41.4486 -85.8536 313° West 369 425 36,000  Level Chicago Center
Sat 01:42:13 PM 41.5181 -85.9539 313° West 367 422 36,000  Level Chicago Center
Sat 01:43:15 PM 41.5872 -86.0544 313° West 366 421 36,000  Level Chicago Center
Sat 01:44:16 PM 41.6561 -86.1547 313° West 364 419 36,000  Level Chicago Center
Sat 01:45:17 PM 41.7253 -86.2542 313° West 365 420 36,000  Level Chicago Center
Sat 01:46:18 PM 41.7928 -86.3536 312° West 359 413 36,000  Level Chicago Center
Sat 01:47:20 PM 41.8622 -86.4506 314° West 358 412 36,000  Level Chicago Center
Sat 01:48:21 PM 41.9311 -86.5478 314° West 358 412 36,000  Level Chicago Center
Sat 01:49:22 PM 42.0133 -86.6658 313° West 359 413 36,000  Level Chicago Center
Sat 01:50:23 PM 42.0819 -86.7614 314° West 354 407 36,000  Level Chicago Center
Sat 01:51:25 PM 42.1500 -86.8600 313° West 358 412 36,000  Level Chicago Center
Sat 01:52:26 PM 42.2172 -86.9583 313° West 356 410 36,000  Level Chicago Center
Sat 01:53:27 PM 42.2797 -87.0492 313° West 356 410 36,000  Level Chicago Center
Sat 01:54:28 PM 42.3481 -87.1511 312° West 354 407 36,000  Level Chicago Center
Sat 01:55:30 PM 42.4125 -87.2517 311° West 352 405 36,000  Level Chicago Center
Sat 01:56:31 PM 42.4781 -87.3517 312° West 353 406 36,000  Level Chicago Center
Sat 01:57:32 PM 42.5531 -87.4708 311° West 355 409 36,000  Level Chicago Center
Sat 01:58:33 PM 42.6172 -87.5728 311° West 356 410 36,000  Level Chicago Center
Sat 01:59:34 PM 42.6831 -87.6736 312° West 356 410 36,000  Level Chicago Center
Sat 02:00:36 PM 42.7486 -87.7767 311° West 359 413 36,000  Level Chicago Center
Sat 02:01:37 PM 42.8125 -87.8789 310° West 357 411 36,000  Level Chicago Center
Sat 02:02:38 PM 42.8781 -87.9825 311° West 360 414 36,000  Level Chicago Center
Sat 02:03:39 PM 42.9433 -88.0875 310° West 361 415 36,000  Level Chicago Center
Sat 02:04:41 PM 43.0086 -88.1906 311° West 359 413 36,000  Level Chicago Center
Sat 02:05:42 PM 43.0872 -88.3178 310° West 363 418 36,000  Level Chicago Center
Sat 02:06:43 PM 43.1528 -88.4228 311° West 361 415 36,000  Level Chicago Center
Sat 02:07:45 PM 43.2186 -88.5292 310° West 362 417 36,000  Level Chicago Center
Sat 02:08:46 PM 43.2842 -88.6367 310° West 364 419 36,000  Level Chicago Center
Sat 02:09:47 PM 43.3500 -88.7431 310° West 362 417 36,000 -295 Level Chicago Center
Sat 02:10:48 PM 43.4150 -88.8517 310° West 363 418 35,400 -537 Descending Chicago Center
Sat 02:11:50 PM 43.4783 -88.9550 310° West 355 409 34,900 -439 Descending Chicago Center
Sat 02:12:51 PM 43.5389 -89.0561 310° West 343 395 34,500 -443 Descending Chicago Center
Sat 02:13:52 PM 43.6031 -89.1631 310° West 356 410 34,000 -244 Descending Chicago Center
Sat 02:14:54 PM 43.6697 -89.2733 310° West 370 426 34,000  Level Chicago Center
Sat 02:15:55 PM 43.7364 -89.3814 311° West 369 425 34,000  Level Chicago Center
Sat 02:16:56 PM 43.8022 -89.4928 309° West 372 428 34,000  Level Chicago Center
Sat 02:17:58 PM 43.8686 -89.6050 309° West 376 433 34,000  Level Chicago Center
Sat 02:18:59 PM 43.9500 -89.7408 310° West 380 437 34,000  Level Chicago Center
Sat 02:20:00 PM 44.0161 -89.8528 309° West 378 435 34,000  Level Chicago Center
Sat 02:21:02 PM 44.0786 -89.9647 308° West 372 428 34,000  Level Chicago Center
Sat 02:22:03 PM 44.1281 -90.0822 300° West 358 412 34,000  Level Chicago Center
Sat 02:23:04 PM 44.1794 -90.1972 302° West 351 404 34,000  Level Chicago Center
Sat 02:24:06 PM 44.2289 -90.3111 301° West 350 403 34,000  Level Chicago Center
Sat 02:25:07 PM 44.2767 -90.4269 300° West 350 403 34,000  Level Chicago Center
Sat 02:26:08 PM 44.3267 -90.5447 301° West 356 410 34,000  Level Chicago Center
Sat 02:27:10 PM 44.3875 -90.6869 301° West 358 412 34,000 -98 Level Chicago Center
Sat 02:28:11 PM 44.4397 -90.8092 301° West 365 420 33,800 -1,131 Descending Chicago Center
Sat 02:29:12 PM 44.4908 -90.9314 300° West 367 422 31,700 -2,000 Descending Chicago Center
Sat 02:30:14 PM 44.5428 -91.0564 300° West 372 428 29,700 -1,951 Descending Chicago Center
Sat 02:31:15 PM 44.5947 -91.1786 301° West 370 426 27,700 -1,917 Descending Chicago Center
Sat 02:32:38 PM 44.6619 -91.3381 301° West 361 415 25,100 -2,083 Descending Minneapolis Center
Sat 02:33:39 PM 44.7228 -91.4858 300° West 362 417 22,700 -2,146 Descending Minneapolis Center
Sat 02:34:41 PM 44.7731 -91.6064 300° West 362 417 20,700 -1,951 Descending Minneapolis Center
Sat 02:35:42 PM 44.8211 -91.7239 300° West 352 405 18,700 -1,805 Descending Minneapolis Center
Sat 02:36:44 PM 44.8664 -91.8350 300° West 337 388 17,000 -1,561 Descending Minneapolis Center
Sat 02:37:45 PM 44.9097 -91.9417 300° West 317 365 15,500 -1,463 Descending Minneapolis Center
Sat 02:38:47 PM 44.9522 -92.0481 299° West 313 360 14,000 -1,463 Descending Minneapolis Center
Sat 02:39:48 PM 44.9953 -92.1519 300° West 309 356 12,500 -1,415 Descending Minneapolis Center
Sat 02:40:50 PM 45.0339 -92.2497 299° West 290 334 11,100 -780 Descending Minneapolis Center
Sat 02:41:51 PM 45.0358 -92.3753 271° West 282 325 10,900 -590 Descending Minneapolis Center
Sat 02:42:52 PM 44.9967 -92.4606 237° Southwest 259 298 9,900 -1,512 Descending Minneapolis Center
Sat 02:43:54 PM 44.9594 -92.5394 236° Southwest 243 280 7,800 -1,415 Descending Minneapolis Center
Sat 02:44:55 PM 44.9214 -92.6189 236° Southwest 244 281 7,000 -390 Descending Minneapolis Center
Sat 02:45:57 PM 44.8828 -92.7000 236° Southwest 249 287 7,000 -439 Level Minneapolis Center
Sat 02:46:58 PM 44.8506 -92.7661 236° Southwest 207 238 6,100 -976 Descending Minneapolis Center
Sat 02:48:00 PM 44.8189 -92.8308 235° Southwest 201 231 5,000 -976 Descending Minneapolis Center
Sat 02:49:01 PM 44.7872 -92.8997 237° Southwest 207 238 4,100 -488 Descending Minneapolis Center
Sat 02:50:03 PM 44.7917 -92.9925 274° West 201 231 4,000 -390 Descending Minneapolis Center
Sat 02:51:04 PM 44.8200 -93.0525 304° West 188 216 3,300 -780 Descending Minneapolis Center
Sat 02:52:06 PM 44.8422 -93.1044 301° West 159 183 2,400 -780 Descending Minneapolis Center
Sat 02:53:07 PM 44.8606 -93.1458 302° West 128 147 1,700 -689 Descending Minneapolis Center
Sat 02:55:00 PM 44.8667 -93.2167 245° Southwest  Level FlightAware Approximate
Sat 03:02:00 PM 44.8820 -93.2218 245° Southwest  Level Estimated
Sat 03:03:00 PM 44.8820 -93.2218 245° Southwest  Level Estimated

Login

Don't have an account? Register now (free) for customized features, flight alerts, and more!